Brainerd, Minnesota
Current Conditions -  °F | °C
As of 1:53 PM on Friday 19 Dec 2014 (Local Time) from KBRD Reporting Station
Haze Haze  
Wind Chill: 17°   Ceiling: 500
Heat Index: 23°   Visibility: 1.7mi
Dew Point: 22°   Wind: 5mph
Humidity: 96%   Direction: 150°SSE
Pressure: 30.12"   Gusts: NA
Location:  46.35°N, 94.2°W
Report Text: KBRD 191953Z AUTO 15004KT 1 3/4SM BR OVC005 M05/M06 A3012 RMK AO2 SLP223 T10501056
Loading
Personal Weather Stations






























Interactive Weather Map New forecast layout! Learn more

10-Day Weather Forecast

Advertisements
Track Severe Weather on mobile